Flight Track Log - Related Links

Times and Time Zones

All times are in EDT time to prevent confusion due to time zone crossing. See the GAJ12 flight status page for this flight to view local times or setup timezone preferences in your user account.

Time Position Orientation Groundspeed Altitude Reporting Facility
EDT Latitude Longitude Course Direction KTS MPH feet Rate Location/Type
Wed 06:21:00 PM 44.0747 -104.5632 109° East  Level Estimated
Wed 06:22:00 PM 44.0282 -104.4014 109° East  Level Estimated
Wed 06:23:00 PM 43.9814 -104.2398 109° East  Level Estimated
Wed 06:24:00 PM 43.9344 -104.0785 101° East  Level Estimated
Wed 06:24:29 PM 44.5486 -105.5286 25° Northeast 286 329 16,000  Level Denver Center
Wed 06:25:00 PM 43.8873 -103.9174 108° East  Level Estimated
Wed 06:25:43 PM 44.5339 -105.3994 99° East 321 369 18,700  Level Denver Center
Wed 06:26:00 PM 43.8398 -103.7567 111° Southeast  Level Estimated
Wed 06:26:45 PM 44.4883 -105.2350 111° Southeast 358 412 21,300  Level Denver Center
Wed 06:27:00 PM 43.8082 -103.5887 105° East  Level FlightAware Approximate
Wed 06:27:47 PM 44.4494 -105.0922 111° Southeast 398 458 23,300  Level Denver Center
Wed 06:28:00 PM 43.7763 -103.4209 105° East  Level FlightAware Approximate
Wed 06:28:49 PM 44.4025 -104.9206 111° Southeast 418 481 25,500  Level Denver Center
Wed 06:29:00 PM 43.7279 -103.2610 110° East  Level Estimated
Wed 06:29:51 PM 44.3608 -104.7706 111° Southeast 429 494 27,400  Level Denver Center
Wed 06:30:53 PM 44.3136 -104.5964 111° Southeast 430 495 29,600 1,968 Climbing Denver Center
Wed 06:31:56 PM 44.2725 -104.4478 111° Southeast 429 494 31,500 1,584 Climbing Denver Center
Wed 06:32:58 PM 44.2314 -104.3031 112° Southeast 422 486 32,900 1,210 Climbing Denver Center
Wed 06:34:00 PM 44.1822 -104.1286 111° Southeast 431 496 34,000 968 Climbing Denver Center
Wed 06:35:02 PM 44.1383 -103.9756 112° Southeast 442 509 34,900 968 Climbing Denver Center
Wed 06:36:04 PM 44.0875 -103.7969 112° Southeast 444 511 36,000 1,016 Climbing Denver Center
Wed 06:37:06 PM 44.0436 -103.6419 111° Southeast 447 514 37,000 968 Climbing Denver Center
Wed 06:38:08 PM 43.9919 -103.4633 112° Southeast 446 513 38,000 774 Climbing Denver Center
Wed 06:39:10 PM 43.9489 -103.3125 112° Southeast 443 510 38,600 484 Climbing Denver Center
Wed 06:40:12 PM 43.8958 -103.1353 113° Southeast 443 510 39,000 194 Climbing Denver Center
Wed 06:41:14 PM 43.8497 -102.9778 112° Southeast 452 520 39,000  Level Denver Center
Wed 06:42:16 PM 43.7942 -102.7911 112° Southeast 464 534 39,000  Level Denver Center
Wed 06:43:18 PM 43.7436 -102.6253 113° Southeast 477 549 39,000  Level Denver Center
Wed 06:44:20 PM 43.6839 -102.4308 113° Southeast 486 559 39,000  Level Denver Center
Wed 06:45:22 PM 43.6328 -102.2647 113° Southeast 488 562 39,000  Level Denver Center
Wed 06:46:36 PM 43.5778 -102.0850 113° Southeast 487 560 39,000  Level Denver Center
Wed 06:47:39 PM 43.5147 -101.8783 113° Southeast 488 562 39,000  Level Denver Center
Wed 06:48:41 PM 43.4614 -101.7064 113° Southeast 488 562 39,000  Level Denver Center
Wed 06:49:42 PM 43.4181 -101.5681 113° Southeast 491 565 39,000  Level Denver Center
Wed 06:50:44 PM 43.3636 -101.3958 113° Southeast 493 567 39,000  Level Denver Center
Wed 06:51:47 PM 43.2881 -101.1533 113° Southeast 494 568 39,000  Level Denver Center
Wed 06:52:49 PM 43.2342 -100.9817 113° Southeast 493 567 39,000  Level Denver Center
Wed 06:53:51 PM 43.1783 -100.8100 114° Southeast 494 568 39,000  Level Denver Center
Wed 06:55:03 PM 43.1128 -100.6064 114° Southeast 494 568 39,000  Level Minneapolis Center
Wed 06:56:05 PM 43.0575 -100.4350 114° Southeast 495 570 39,000  Level Minneapolis Center
Wed 06:57:07 PM 43.0022 -100.2633 114° Southeast 495 570 39,000  Level Minneapolis Center
Wed 06:58:09 PM 42.9336 -100.0594 115° Southeast 495 570 39,000  Level Minneapolis Center
Wed 06:59:11 PM 42.8764 -99.8906 115° Southeast 493 567 39,000  Level Minneapolis Center
Wed 07:00:13 PM 42.8247 -99.7333 114° Southeast 495 570 39,000  Level Minneapolis Center
Wed 07:01:15 PM 42.7675 -99.5622 114° Southeast 495 570 39,000  Level Minneapolis Center
Wed 07:02:17 PM 42.6997 -99.3581 114° Southeast 494 568 39,000  Level Minneapolis Center
Wed 07:03:19 PM 42.6428 -99.1908 115° Southeast 488 562 39,000  Level Minneapolis Center
Wed 07:04:21 PM 42.5872 -99.0281 115° Southeast 478 550 39,000  Level Minneapolis Center
Wed 07:05:23 PM 42.5319 -98.8669 115° Southeast 471 542 39,000  Level Minneapolis Center
Wed 07:06:25 PM 42.4758 -98.7072 115° Southeast 469 540 39,000  Level Minneapolis Center
Wed 07:07:27 PM 42.4142 -98.5531 118° Southeast 465 535 39,000  Level Minneapolis Center
Wed 07:08:29 PM 42.3497 -98.4047 120° Southeast 459 528 39,000  Level Minneapolis Center
Wed 07:09:31 PM 42.2728 -98.2250 120° Southeast 458 527 39,000  Level Minneapolis Center
Wed 07:10:33 PM 42.2094 -98.0764 120° Southeast 456 525 39,000  Level Minneapolis Center
Wed 07:11:35 PM 42.1458 -97.9272 120° Southeast 456 525 39,000  Level Minneapolis Center
Wed 07:12:37 PM 42.0869 -97.7911 120° Southeast 457 526 39,000  Level Minneapolis Center
Wed 07:13:39 PM 42.0228 -97.6456 121° Southeast 453 521 39,000  Level Minneapolis Center
Wed 07:14:41 PM 41.9461 -97.4706 120° Southeast 454 522 39,000  Level Minneapolis Center
Wed 07:15:43 PM 41.8850 -97.3272 120° Southeast 446 513 39,000  Level Minneapolis Center
Wed 07:16:45 PM 41.8217 -97.1850 121° Southeast 445 512 39,000  Level Minneapolis Center
Wed 07:17:47 PM 41.7586 -97.0425 121° Southeast 444 511 39,000  Level Minneapolis Center
Wed 07:18:49 PM 41.6953 -96.9008 121° Southeast 444 511 39,000  Level Minneapolis Center
Wed 07:19:51 PM 41.6314 -96.7583 121° Southeast 446 513 39,000  Level Minneapolis Center
Wed 07:20:52 PM 41.5542 -96.5886 121° Southeast 446 513 39,000  Level Minneapolis Center
Wed 07:21:54 PM 41.4900 -96.4444 121° Southeast 451 519 39,000  Level Minneapolis Center
Wed 07:22:56 PM 41.4300 -96.3119 121° Southeast 451 519 39,000  Level Minneapolis Center
Wed 07:23:58 PM 41.3636 -96.1692 122° Southeast 453 521 39,000 484 Level Minneapolis Center
Wed 07:25:00 PM 41.2864 -95.9983 121° Southeast 450 518 40,000 774 Climbing Minneapolis Center
Wed 07:26:02 PM 41.2222 -95.8594 122° Southeast 443 510 40,600 484 Climbing Minneapolis Center
Wed 07:27:04 PM 41.1600 -95.7197 121° Southeast 439 505 41,000 194 Climbing Minneapolis Center
Wed 07:28:06 PM 41.1128 -95.5706 113° Southeast 450 518 41,000 -242 Level Minneapolis Center
Wed 07:29:08 PM 41.0647 -95.4144 112° Southeast 456 525 40,500 -532 Descending Minneapolis Center
Wed 07:30:10 PM 41.0139 -95.2514 112° Southeast 471 542 39,900 -634 Descending Minneapolis Center
Wed 07:31:11 PM 40.9508 -95.0561 113° Southeast 479 551 39,200 -439 Descending Minneapolis Center
Wed 07:32:13 PM 40.8992 -94.8942 113° Southeast 479 551 39,000 -290 Descending Minneapolis Center
Wed 07:33:15 PM 40.8475 -94.7344 113° Southeast 475 547 38,600 -919 Descending Minneapolis Center
Wed 07:34:17 PM 40.7958 -94.5764 113° Southeast 470 541 37,100 -1,500 Descending Minneapolis Center
Wed 07:35:19 PM 40.7442 -94.4150 113° Southeast 470 541 35,500 -1,500 Descending Minneapolis Center
Wed 07:36:21 PM 40.6897 -94.2569 114° Southeast 473 544 34,000 -1,210 Descending Minneapolis Center
Wed 07:37:23 PM 40.6369 -94.1000 114° Southeast 473 544 33,000 -484 Descending Minneapolis Center
Wed 07:38:25 PM 40.5742 -93.9100 113° Southeast 475 547 33,000  Level Minneapolis Center
Wed 07:39:26 PM 40.5217 -93.7486 113° Southeast 477 549 33,000  Level Minneapolis Center
Wed 07:40:28 PM 40.4708 -93.5928 113° Southeast 477 549 33,000  Level Minneapolis Center
Wed 07:41:30 PM 40.4192 -93.4353 113° Southeast 476 548 33,000  Level Minneapolis Center
Wed 07:41:57 PM 40.3967 -93.3717 115° Southeast 474 545 33,000  Level Kansas City Center
Wed 07:42:59 PM 40.3347 -93.1850 113° Southeast 471 542 33,000  Level Kansas City Center
Wed 07:44:01 PM 40.2789 -93.0219 114° Southeast 472 543 33,000  Level Kansas City Center
Wed 07:45:03 PM 40.2278 -92.8711 114° Southeast 473 544 33,000  Level Kansas City Center
Wed 07:46:05 PM 40.1764 -92.7219 114° Southeast 471 542 33,000 -829 Level Kansas City Center
Wed 07:47:06 PM 40.1161 -92.5503 115° Southeast 466 536 31,300 -1,561 Descending Kansas City Center
Wed 07:48:08 PM 40.0553 -92.4025 118° Southeast 457 526 29,800 -1,452 Descending Kansas City Center
Wed 07:49:10 PM 39.9942 -92.2597 119° Southeast 456 525 28,300 -1,452 Descending Kansas City Center
Wed 07:50:12 PM 39.9350 -92.1208 119° Southeast 446 513 26,800 -1,548 Descending Kansas City Center
Wed 07:51:14 PM 39.8767 -91.9842 119° Southeast 440 506 25,100 -1,902 Descending Kansas City Center
Wed 07:52:15 PM 39.8083 -91.8250 119° Southeast 431 496 22,900 -1,707 Descending Kansas City Center
Wed 07:53:17 PM 39.7525 -91.6950 119° Southeast 422 486 21,600 -1,113 Descending Kansas City Center
Wed 07:54:19 PM 39.6997 -91.5703 119° Southeast 405 466 20,600 -774 Descending Kansas City Center
Wed 07:55:21 PM 39.6453 -91.4461 120° Southeast 400 460 20,000 -634 Descending Kansas City Center
Wed 07:56:22 PM 39.5917 -91.3208 119° Southeast 392 451 19,300 -634 Descending Kansas City Center
Wed 07:57:24 PM 39.5400 -91.2039 120° Southeast 379 436 18,700 -1,016 Descending Kansas City Center
Wed 07:58:26 PM 39.4894 -91.0878 119° Southeast 372 428 17,200 -1,839 Descending Kansas City Center
Wed 07:59:28 PM 39.4297 -90.9531 120° Southeast 363 418 14,900 -2,032 Descending Kansas City Center
Wed 08:00:30 PM 39.3533 -90.8797 143° Southeast 351 404 13,000 -1,805 Descending Kansas City Center
Wed 08:01:31 PM 39.2700 -90.8283 154° Southeast 339 390 11,200 -1,610 Descending Kansas City Center
Wed 08:02:33 PM 39.1911 -90.8036 166° South 302 348 9,700 -1,452 Descending Kansas City Center
Wed 08:03:35 PM 39.1242 -90.7547 150° Southeast 281 323 8,200 -1,463 Descending Kansas City Center
Wed 08:04:36 PM 39.0578 -90.7042 149° Southeast 278 320 6,700 -1,463 Descending Kansas City Center
Wed 08:05:38 PM 38.9917 -90.6528 149° Southeast 278 320 5,200 -1,548 Descending Kansas City Center
Wed 08:06:40 PM 38.9214 -90.5983 149° Southeast 261 300 3,500 -823 Descending Kansas City Center
Wed 08:07:42 PM 38.8706 -90.5589 149° Southeast 237 273 3,500 -98 Level Kansas City Center
Wed 08:08:43 PM 38.8269 -90.5172 143° Southeast 213 245 3,300 -634 Descending Kansas City Center
Wed 08:09:45 PM 38.7975 -90.4592 123° Southeast 200 230 2,200 -871 Descending Kansas City Center
Wed 08:10:47 PM 38.7783 -90.4192 122° Southeast 157 181 1,500 -634 Descending Kansas City Center
Wed 08:11:48 PM 38.7603 -90.3825 122° Southeast 133 153 900 -590 Descending Kansas City Center
Wed 08:13:00 PM 38.7487 -90.3700 123° Southeast  Level Estimated

Login

Don't have an account? Register now (free) for customized features, flight alerts, and more!